createdAt,value
2024-02-02T00:00:47.151Z,79.81
2024-02-02T00:03:14.056Z,79.41
2024-02-02T00:05:40.849Z,79.31
2024-02-02T00:08:07.901Z,79.43
2024-02-02T00:10:34.751Z,79.33
2024-02-02T00:13:01.418Z,78.98
2024-02-02T00:15:28.163Z,79.00
2024-02-02T00:17:55.032Z,78.97
2024-02-02T00:20:21.852Z,78.37
2024-02-02T00:22:48.618Z,78.20
2024-02-02T00:25:15.366Z,78.49
2024-02-02T00:27:42.007Z,77.25
2024-02-02T00:30:09.267Z,77.39
2024-02-02T00:32:35.965Z,77.75
2024-02-02T00:35:03.064Z,77.65
2024-02-02T00:37:29.854Z,76.41
2024-02-02T00:39:56.521Z,77.44
2024-02-02T00:42:23.226Z,78.24
2024-02-02T00:44:49.946Z,78.15
2024-02-02T00:47:16.653Z,78.08
2024-02-02T00:49:43.496Z,76.95
2024-02-02T00:52:10.347Z,77.64
2024-02-02T00:54:37.093Z,77.46
2024-02-02T00:57:04.173Z,77.43
2024-02-02T00:59:30.876Z,77.32
2024-02-02T01:01:57.640Z,78.68
2024-02-02T01:04:24.326Z,78.83
2024-02-02T01:06:51.157Z,78.92
2024-02-02T01:09:18.001Z,79.20
2024-02-02T01:11:44.844Z,79.18
2024-02-02T01:14:11.719Z,78.24
2024-02-02T01:16:38.416Z,78.98
2024-02-02T01:19:05.473Z,78.13
2024-02-02T01:21:32.315Z,78.18
2024-02-02T01:24:00.280Z,78.05
2024-02-02T01:26:26.973Z,77.46
2024-02-02T01:28:53.628Z,77.77
2024-02-02T01:31:20.272Z,77.99
2024-02-02T01:33:47.080Z,77.67
2024-02-02T01:36:13.845Z,77.20
2024-02-02T01:38:40.602Z,77.06
2024-02-02T01:41:07.246Z,76.53
2024-02-02T01:43:33.920Z,75.76
2024-02-02T01:46:00.585Z,76.05
2024-02-02T01:48:27.796Z,77.05
2024-02-02T01:50:54.889Z,77.67
2024-02-02T01:53:21.926Z,78.25
2024-02-02T01:55:48.631Z,77.95
2024-02-02T01:58:15.502Z,77.60
2024-02-02T02:00:42.619Z,77.61
2024-02-02T02:03:09.475Z,77.59
2024-02-02T02:05:37.279Z,77.34
2024-02-02T02:08:04.158Z,76.81
2024-02-02T02:10:31.046Z,76.18
2024-02-02T02:12:58.293Z,76.54
2024-02-02T02:15:25.496Z,76.62
2024-02-02T02:17:55.171Z,76.32
2024-02-02T02:20:23.669Z,76.12
2024-02-02T02:22:50.464Z,76.85
2024-02-02T02:25:17.224Z,76.43
2024-02-02T02:27:44.255Z,76.42
2024-02-02T02:30:11.579Z,76.46
2024-02-02T02:32:38.179Z,76.01
2024-02-02T02:35:05.243Z,75.16
2024-02-02T02:37:31.961Z,76.15
2024-02-02T02:39:59.167Z,76.06
2024-02-02T02:42:25.946Z,76.39
2024-02-02T02:44:52.712Z,77.08
2024-02-02T02:47:20.041Z,77.06
2024-02-02T02:49:46.626Z,77.13
2024-02-02T02:52:13.296Z,76.18
2024-02-02T02:54:40.043Z,76.29
2024-02-02T02:57:06.710Z,77.17
2024-02-02T02:59:33.697Z,77.72
2024-02-02T03:02:00.424Z,77.43
2024-02-02T03:04:27.326Z,77.85
2024-02-02T03:06:54.103Z,76.88
2024-02-02T03:09:20.899Z,76.69
2024-02-02T03:11:47.654Z,77.48
2024-02-02T03:14:14.977Z,76.79
2024-02-02T03:16:41.661Z,76.80
2024-02-02T03:19:08.457Z,78.15
2024-02-02T03:21:36.351Z,78.95
2024-02-02T03:24:03.501Z,77.82
2024-02-02T03:26:30.292Z,76.70
2024-02-02T03:28:58.181Z,76.73
2024-02-02T03:31:24.905Z,77.05
2024-02-02T03:33:51.780Z,77.21
2024-02-02T03:36:18.582Z,77.16
2024-02-02T03:38:45.249Z,77.04
2024-02-02T03:41:11.888Z,77.47
2024-02-02T03:43:38.542Z,77.20
2024-02-02T03:46:05.431Z,77.68
2024-02-02T03:48:32.205Z,78.05
2024-02-02T03:50:58.953Z,77.48
2024-02-02T03:53:25.630Z,77.78
2024-02-02T03:55:52.272Z,77.67
2024-02-02T03:58:18.924Z,76.88
2024-02-02T04:00:46.601Z,76.77
2024-02-02T04:03:13.476Z,76.70
2024-02-02T04:05:41.057Z,76.58
2024-02-02T04:08:08.334Z,77.28
2024-02-02T04:10:35.064Z,76.94
2024-02-02T04:13:03.454Z,75.85
2024-02-02T04:15:33.122Z,75.79
2024-02-02T04:18:00.619Z,76.60
2024-02-02T04:20:27.524Z,76.94
2024-02-02T04:22:54.237Z,76.84
2024-02-02T04:25:20.909Z,76.92
2024-02-02T04:27:47.615Z,76.60
2024-02-02T04:30:14.660Z,77.32
2024-02-02T04:32:42.354Z,77.36
2024-02-02T04:35:09.124Z,77.58
2024-02-02T04:37:35.794Z,77.69
2024-02-02T04:40:02.576Z,77.83
2024-02-02T04:42:29.347Z,77.92
2024-02-02T04:44:56.237Z,78.75
2024-02-02T04:47:23.765Z,78.22
2024-02-02T04:49:50.675Z,77.92
2024-02-02T04:52:17.407Z,77.30
2024-02-02T04:54:44.142Z,77.67
2024-02-02T04:57:10.813Z,77.09
2024-02-02T04:59:38.526Z,77.06
2024-02-02T05:02:06.617Z,77.69
2024-02-02T05:04:34.002Z,77.50
2024-02-02T05:07:00.809Z,77.23
2024-02-02T05:09:27.568Z,76.69
2024-02-02T05:11:54.251Z,75.54
2024-02-02T05:14:20.916Z,74.40
2024-02-02T05:16:47.648Z,75.62
2024-02-02T05:19:14.448Z,75.32
2024-02-02T05:21:41.212Z,75.80
2024-02-02T05:24:20.498Z,75.89
2024-02-02T05:26:54.672Z,75.79
2024-02-02T05:29:21.338Z,75.44
2024-02-02T05:31:47.974Z,75.20
2024-02-02T05:34:14.969Z,74.69
2024-02-02T05:36:41.695Z,74.68
2024-02-02T05:39:10.099Z,74.85
2024-02-02T05:41:36.792Z,75.63
2024-02-02T05:44:03.615Z,76.65
2024-02-02T05:46:30.293Z,78.46
2024-02-02T05:48:57.371Z,78.15
2024-02-02T05:51:24.187Z,78.02
2024-02-02T05:53:50.907Z,76.23
2024-02-02T05:56:17.579Z,75.09
2024-02-02T05:58:44.229Z,75.21
2024-02-02T06:01:10.941Z,76.03
2024-02-02T06:03:37.795Z,74.03
2024-02-02T06:06:04.761Z,73.92
2024-02-02T06:08:31.475Z,74.43
2024-02-02T06:10:58.124Z,74.96
2024-02-02T06:13:24.789Z,75.00
2024-02-02T06:15:51.428Z,75.67
2024-02-02T06:18:20.790Z,77.34
2024-02-02T06:20:47.690Z,76.96
2024-02-02T06:23:14.432Z,77.13
2024-02-02T06:25:41.553Z,76.99
2024-02-02T06:28:09.485Z,75.97
2024-02-02T06:30:36.284Z,74.01
2024-02-02T06:33:03.113Z,73.97
2024-02-02T06:35:31.394Z,73.74
2024-02-02T06:37:59.074Z,73.15
2024-02-02T06:40:25.849Z,72.42
2024-02-02T06:42:52.561Z,72.73
2024-02-02T06:45:19.326Z,72.37
2024-02-02T06:47:46.053Z,72.68
2024-02-02T06:50:12.715Z,73.33
2024-02-02T06:52:39.355Z,73.87
2024-02-02T06:55:06.310Z,73.77
2024-02-02T06:57:33.474Z,73.56
2024-02-02T07:00:01.556Z,71.87
2024-02-02T07:02:34.170Z,72.41
2024-02-02T07:05:01.853Z,72.31
2024-02-02T07:07:28.824Z,72.91
2024-02-02T07:09:59.100Z,74.19
2024-02-02T07:12:34.866Z,74.31
2024-02-02T07:15:05.742Z,74.28
2024-02-02T07:17:38.726Z,73.77
2024-02-02T07:20:11.200Z,73.87
2024-02-02T07:22:44.017Z,73.00
2024-02-02T07:25:18.637Z,72.06
2024-02-02T07:27:52.667Z,71.55
2024-02-02T07:30:45.364Z,72.25
2024-02-02T07:33:25.676Z,73.14
2024-02-02T07:35:54.742Z,72.70
2024-02-02T07:38:43.260Z,73.00
2024-02-02T07:41:11.987Z,71.86
2024-02-02T07:43:38.697Z,72.98
2024-02-02T07:46:10.521Z,72.55
2024-02-02T07:48:40.195Z,72.11
2024-02-02T07:51:08.347Z,71.67
2024-02-02T07:53:35.696Z,72.37
2024-02-02T07:56:02.528Z,72.29
2024-02-02T07:58:29.333Z,72.28
2024-02-02T08:00:56.108Z,72.04
2024-02-02T08:03:23.143Z,72.32
2024-02-02T08:05:49.893Z,72.49
2024-02-02T08:08:16.610Z,72.46
2024-02-02T08:10:44.248Z,72.65
2024-02-02T08:13:15.436Z,73.08
2024-02-02T08:15:42.414Z,72.54
2024-02-02T08:18:10.341Z,72.30
2024-02-02T08:20:37.555Z,72.65
2024-02-02T08:23:05.791Z,73.19
2024-02-02T08:25:32.587Z,73.35
2024-02-02T08:27:59.505Z,73.04
2024-02-02T08:30:26.294Z,73.00
2024-02-02T08:32:53.306Z,72.55
2024-02-02T08:35:24.362Z,72.54
2024-02-02T08:37:58.978Z,72.25
2024-02-02T08:40:41.010Z,72.16
2024-02-02T08:43:18.924Z,71.93
2024-02-02T08:45:57.598Z,71.60
2024-02-02T08:48:33.996Z,72.13
2024-02-02T08:51:01.993Z,71.83
2024-02-02T08:53:30.890Z,73.53
2024-02-02T08:56:02.352Z,73.64
2024-02-02T08:58:36.237Z,74.76
2024-02-02T09:01:07.124Z,74.24
2024-02-02T09:03:45.828Z,73.68
2024-02-02T09:06:45.873Z,73.33
2024-02-02T09:09:16.040Z,74.59
2024-02-02T09:11:48.766Z,74.79
2024-02-02T09:14:19.131Z,74.30
2024-02-02T09:16:49.241Z,73.71
2024-02-02T09:19:32.195Z,73.35
2024-02-02T09:22:02.578Z,72.97
2024-02-02T09:24:29.391Z,72.09
2024-02-02T09:26:58.990Z,71.87
2024-02-02T09:29:25.975Z,70.19
2024-02-02T09:31:52.609Z,70.65
2024-02-02T09:34:28.834Z,70.92
2024-02-02T09:36:55.695Z,71.28
2024-02-02T09:39:55.403Z,70.67
2024-02-02T09:42:51.299Z,71.42
2024-02-02T09:45:32.184Z,69.28
2024-02-02T09:48:07.092Z,69.70
2024-02-02T09:50:51.730Z,69.24
2024-02-02T09:53:40.252Z,67.85
2024-02-02T09:56:43.259Z,68.65
2024-02-02T09:59:18.951Z,68.75
2024-02-02T10:01:58.056Z,68.70
2024-02-02T10:04:36.730Z,69.21
2024-02-02T10:07:03.663Z,68.68
2024-02-02T10:09:48.920Z,68.74
2024-02-02T10:12:41.826Z,68.39
2024-02-02T10:15:23.842Z,69.02
2024-02-02T10:18:11.541Z,66.72
2024-02-02T10:21:12.362Z,65.93
2024-02-02T10:23:49.581Z,66.64
2024-02-02T10:26:41.247Z,66.45
2024-02-02T10:29:07.847Z,64.73
2024-02-02T10:31:58.465Z,65.21
2024-02-02T10:34:54.869Z,65.57
2024-02-02T10:37:38.718Z,66.77
2024-02-02T10:40:22.586Z,66.03
2024-02-02T10:43:04.550Z,66.18
2024-02-02T10:45:41.590Z,64.80
2024-02-02T10:48:32.384Z,65.19
2024-02-02T10:51:43.588Z,65.31
2024-02-02T10:54:34.576Z,66.11
2024-02-02T10:57:19.774Z,65.00
2024-02-02T11:00:08.495Z,66.36
2024-02-02T11:03:05.470Z,66.35
2024-02-02T11:05:39.660Z,66.52
2024-02-02T11:08:12.718Z,65.79
2024-02-02T11:11:02.513Z,66.32
2024-02-02T11:13:51.168Z,64.90
2024-02-02T11:16:36.341Z,65.31
2024-02-02T11:19:34.947Z,66.55
2024-02-02T11:22:24.192Z,67.26
2024-02-02T11:25:10.797Z,67.35
2024-02-02T11:27:51.121Z,67.64
2024-02-02T11:30:47.942Z,67.29
2024-02-02T11:33:28.359Z,68.85
2024-02-02T11:36:13.182Z,69.22
2024-02-02T11:39:08.757Z,68.85
2024-02-02T11:41:39.148Z,68.74
2024-02-02T11:44:06.500Z,69.37
2024-02-02T11:46:34.341Z,69.12
2024-02-02T11:49:10.199Z,68.82
2024-02-02T11:51:38.798Z,67.39
2024-02-02T11:54:28.073Z,67.97
2024-02-02T11:56:56.683Z,68.04
2024-02-02T11:59:42.044Z,66.57
2024-02-02T12:02:17.773Z,66.94
2024-02-02T12:04:53.466Z,67.50
2024-02-02T12:07:29.323Z,66.15
2024-02-02T12:10:02.150Z,67.23
2024-02-02T12:12:37.555Z,67.62
2024-02-02T12:15:05.875Z,68.79
2024-02-02T12:17:32.584Z,70.81
2024-02-02T12:19:59.625Z,71.15
2024-02-02T12:22:27.228Z,71.78
2024-02-02T12:24:54.012Z,70.77
2024-02-02T12:27:20.712Z,70.93
2024-02-02T12:29:47.920Z,70.95
2024-02-02T12:32:14.669Z,69.02
2024-02-02T12:34:41.632Z,70.55
2024-02-02T12:37:08.774Z,70.69
2024-02-02T12:39:38.670Z,67.54
2024-02-02T12:42:07.269Z,68.77
2024-02-02T12:44:34.243Z,68.81
2024-02-02T12:47:01.310Z,67.49
2024-02-02T12:49:28.692Z,66.51
2024-02-02T12:51:57.678Z,68.19
2024-02-02T12:54:24.696Z,70.75
2024-02-02T12:56:52.021Z,71.84
2024-02-02T12:59:19.841Z,72.81
2024-02-02T13:01:49.313Z,70.91
2024-02-02T13:04:18.107Z,70.99
2024-02-02T13:06:46.535Z,73.23
2024-02-02T13:09:19.534Z,74.32
2024-02-02T13:11:49.885Z,75.21
2024-02-02T13:14:37.848Z,76.22
2024-02-02T13:17:13.835Z,77.55
2024-02-02T13:19:47.033Z,78.37
2024-02-02T13:22:28.074Z,76.22
2024-02-02T13:24:58.251Z,78.48
2024-02-02T13:27:33.632Z,79.80
2024-02-02T13:30:03.488Z,76.97
2024-02-02T13:32:34.817Z,75.93
2024-02-02T13:35:02.056Z,75.31
2024-02-02T13:37:37.924Z,74.69
2024-02-02T13:40:10.729Z,74.89
2024-02-02T13:42:38.129Z,75.62
2024-02-02T13:45:13.159Z,73.79
2024-02-02T13:47:40.208Z,75.05
2024-02-02T13:50:13.547Z,74.67
2024-02-02T13:52:40.515Z,74.25
2024-02-02T13:55:07.641Z,74.23
2024-02-02T13:57:34.406Z,73.56
2024-02-02T14:00:01.299Z,73.45
2024-02-02T14:02:28.245Z,74.33
2024-02-02T14:04:58.355Z,74.75
2024-02-02T14:07:25.058Z,74.87
2024-02-02T14:10:02.676Z,74.25
2024-02-02T14:12:29.447Z,73.95
2024-02-02T14:14:56.461Z,73.27
2024-02-02T14:17:24.043Z,72.33
2024-02-02T14:20:03.046Z,74.09
2024-02-02T14:22:30.148Z,74.54
2024-02-02T14:24:57.412Z,75.35
2024-02-02T14:27:38.872Z,76.18
2024-02-02T14:30:09.805Z,76.46
2024-02-02T14:32:36.920Z,75.90
2024-02-02T14:35:05.853Z,77.73
2024-02-02T14:37:33.703Z,78.13
2024-02-02T14:40:01.641Z,77.92
2024-02-02T14:42:31.536Z,79.27
2024-02-02T14:45:00.032Z,78.96
2024-02-02T14:47:27.875Z,79.44
2024-02-02T14:49:54.762Z,78.45
2024-02-02T14:52:21.836Z,78.60
2024-02-02T14:54:48.522Z,77.21
2024-02-02T14:57:18.504Z,77.73
2024-02-02T14:59:51.215Z,77.79
2024-02-02T15:02:18.202Z,77.85
2024-02-02T15:04:45.723Z,75.62
2024-02-02T15:07:12.997Z,74.74
2024-02-02T15:09:42.439Z,74.18
2024-02-02T15:12:09.804Z,74.61
2024-02-02T15:14:36.695Z,72.47
2024-02-02T15:17:03.791Z,72.61
2024-02-02T15:19:30.579Z,73.22
2024-02-02T15:21:57.338Z,73.09
2024-02-02T15:24:24.299Z,72.45
2024-02-02T15:26:51.117Z,72.36
2024-02-02T15:29:17.767Z,71.71
2024-02-02T15:31:44.402Z,70.75
2024-02-02T15:34:11.190Z,70.28
2024-02-02T15:36:38.020Z,70.83
2024-02-02T15:39:19.535Z,69.52
2024-02-02T15:41:54.052Z,69.03
2024-02-02T15:44:21.001Z,70.32
2024-02-02T15:46:47.658Z,69.39
2024-02-02T15:49:14.496Z,70.87
2024-02-02T15:51:41.480Z,69.61
2024-02-02T15:54:08.753Z,69.67
2024-02-02T15:56:35.438Z,69.67
2024-02-02T15:59:02.788Z,68.73
2024-02-02T16:01:29.594Z,69.66
2024-02-02T16:03:56.524Z,68.96
2024-02-02T16:06:23.414Z,68.25
2024-02-02T16:08:50.228Z,67.13
2024-02-02T16:11:17.491Z,67.54
2024-02-02T16:13:47.090Z,66.63
2024-02-02T16:16:13.791Z,65.92
2024-02-02T16:18:40.581Z,65.46
2024-02-02T16:21:07.340Z,65.11
2024-02-02T16:23:34.010Z,67.31
2024-02-02T16:26:00.835Z,66.43
2024-02-02T16:28:27.571Z,66.64
2024-02-02T16:30:54.371Z,65.19
2024-02-02T16:33:23.569Z,64.28
2024-02-02T16:35:50.507Z,64.55
2024-02-02T16:38:17.212Z,62.34
2024-02-02T16:40:43.959Z,62.66
2024-02-02T16:43:10.757Z,62.90
2024-02-02T16:45:37.490Z,62.56
2024-02-02T16:48:04.666Z,62.84
2024-02-02T16:50:31.647Z,63.50
2024-02-02T16:52:58.489Z,63.09
2024-02-02T16:55:25.252Z,58.68
2024-02-02T16:57:52.949Z,60.11
2024-02-02T17:00:20.354Z,60.22
2024-02-02T17:02:47.171Z,60.35
2024-02-02T17:05:13.845Z,58.90
2024-02-02T17:07:40.837Z,58.96
2024-02-02T17:10:07.914Z,58.90
2024-02-02T17:12:35.679Z,57.99
2024-02-02T17:15:04.316Z,55.83
2024-02-02T17:17:31.234Z,55.56
2024-02-02T17:19:58.151Z,56.26
2024-02-02T17:22:24.899Z,55.81
2024-02-02T17:24:51.708Z,55.37
2024-02-02T17:27:18.524Z,54.40
2024-02-02T17:29:45.290Z,56.25
2024-02-02T17:32:15.473Z,56.51
2024-02-02T17:34:50.325Z,56.27
2024-02-02T17:37:17.147Z,55.35
2024-02-02T17:39:44.018Z,54.99
2024-02-02T17:42:10.928Z,56.38
2024-02-02T17:44:37.601Z,56.16
2024-02-02T17:47:04.510Z,54.24
2024-02-02T17:49:41.088Z,54.67
2024-02-02T17:52:13.007Z,54.24
2024-02-02T17:54:39.956Z,53.83
2024-02-02T17:57:07.470Z,56.28
2024-02-02T17:59:34.346Z,52.77
2024-02-02T18:02:02.449Z,53.32
2024-02-02T18:04:29.701Z,54.81
2024-02-02T18:06:56.534Z,52.98
2024-02-02T18:09:23.398Z,53.16
2024-02-02T18:11:50.228Z,48.39
2024-02-02T18:14:20.695Z,49.85
2024-02-02T18:16:47.744Z,50.56
2024-02-02T18:19:14.522Z,51.11
2024-02-02T18:21:41.435Z,51.62
2024-02-02T18:24:09.671Z,50.28
2024-02-02T18:26:38.063Z,49.76
2024-02-02T18:29:05.102Z,49.13
2024-02-02T18:31:31.865Z,49.59
2024-02-02T18:33:58.633Z,50.64
2024-02-02T18:36:25.422Z,50.78
2024-02-02T18:38:52.247Z,53.26
2024-02-02T18:41:18.892Z,52.59
2024-02-02T18:43:45.551Z,51.70
2024-02-02T18:46:12.193Z,51.23
2024-02-02T18:48:40.536Z,50.41
2024-02-02T18:51:15.478Z,49.20
2024-02-02T18:53:42.127Z,50.19
2024-02-02T18:56:13.296Z,51.33
2024-02-02T18:58:46.043Z,48.40
2024-02-02T19:01:33.769Z,49.39
2024-02-02T19:04:00.929Z,49.45
2024-02-02T19:06:27.790Z,49.58
2024-02-02T19:08:54.942Z,48.96
2024-02-02T19:11:22.463Z,48.09
2024-02-02T19:13:49.188Z,51.26
2024-02-02T19:16:23.621Z,50.51
2024-02-02T19:18:51.434Z,51.24
2024-02-02T19:21:26.619Z,50.89
2024-02-02T19:23:54.280Z,46.92
2024-02-02T19:26:21.559Z,47.87
2024-02-02T19:28:48.226Z,47.57
2024-02-02T19:31:22.628Z,47.68
2024-02-02T19:33:50.448Z,48.13
2024-02-02T19:36:28.866Z,47.15
2024-02-02T19:38:59.476Z,44.44
2024-02-02T19:41:29.632Z,47.83
2024-02-02T19:43:57.164Z,43.69
2024-02-02T19:46:27.542Z,41.97
2024-02-02T19:48:55.996Z,44.67
2024-02-02T19:51:24.669Z,47.40
2024-02-02T19:53:51.812Z,44.90
2024-02-02T19:56:21.891Z,45.51
2024-02-02T19:58:50.592Z,44.82
2024-02-02T20:01:19.805Z,44.38
2024-02-02T20:03:48.442Z,43.70
2024-02-02T20:06:17.521Z,43.69
2024-02-02T20:08:45.945Z,43.68
2024-02-02T20:11:17.002Z,42.91
2024-02-02T20:13:44.069Z,45.28
2024-02-02T20:16:15.065Z,45.56
2024-02-02T20:18:42.170Z,43.73
2024-02-02T20:21:08.951Z,43.16
2024-02-02T20:23:37.680Z,42.15
2024-02-02T20:26:05.267Z,44.83
2024-02-02T20:28:32.282Z,48.43
2024-02-02T20:30:59.042Z,46.17
2024-02-02T20:33:26.115Z,42.90
2024-02-02T20:35:52.721Z,44.65
2024-02-02T20:38:19.416Z,44.11
2024-02-02T20:40:46.079Z,45.83
2024-02-02T20:43:12.789Z,42.43
2024-02-02T20:45:39.509Z,42.76
2024-02-02T20:48:06.534Z,44.51
2024-02-02T20:50:33.284Z,45.31
2024-02-02T20:52:59.985Z,45.52
2024-02-02T20:55:26.675Z,46.98
2024-02-02T20:57:53.428Z,44.42
2024-02-02T21:00:20.333Z,49.42
2024-02-02T21:02:47.069Z,45.83
2024-02-02T21:05:13.968Z,45.18
2024-02-02T21:07:40.814Z,42.96
2024-02-02T21:10:07.769Z,42.70
2024-02-02T21:12:34.931Z,46.78
2024-02-02T21:15:01.873Z,46.25
2024-02-02T21:17:29.442Z,46.31
2024-02-02T21:19:58.116Z,44.79
2024-02-02T21:22:25.596Z,39.94
2024-02-02T21:24:52.406Z,41.03
2024-02-02T21:27:19.190Z,41.16
2024-02-02T21:29:45.885Z,41.76
2024-02-02T21:32:12.542Z,44.42
2024-02-02T21:34:39.343Z,44.83
2024-02-02T21:37:06.148Z,44.15
2024-02-02T21:39:32.955Z,41.86
2024-02-02T21:41:59.633Z,41.44
2024-02-02T21:44:26.262Z,40.91
2024-02-02T21:46:52.949Z,45.54
2024-02-02T21:49:19.691Z,42.78
2024-02-02T21:51:46.500Z,43.03
2024-02-02T21:54:13.545Z,42.06
2024-02-02T21:56:43.457Z,44.70
2024-02-02T21:59:10.429Z,45.29
2024-02-02T22:01:39.011Z,42.65
2024-02-02T22:04:06.133Z,42.08
2024-02-02T22:06:33.377Z,41.11
2024-02-02T22:09:03.205Z,44.77
2024-02-02T22:11:29.905Z,45.97
2024-02-02T22:13:56.592Z,45.25
2024-02-02T22:16:23.220Z,44.65
2024-02-02T22:18:50.264Z,44.08
2024-02-02T22:21:25.852Z,40.51
2024-02-02T22:23:52.659Z,40.73
2024-02-02T22:26:20.582Z,39.19
2024-02-02T22:28:48.319Z,41.42
2024-02-02T22:31:21.877Z,41.67
2024-02-02T22:33:48.939Z,41.03
2024-02-02T22:36:25.709Z,41.75
2024-02-02T22:38:55.650Z,40.37
2024-02-02T22:41:33.106Z,39.53
2024-02-02T22:44:01.692Z,41.82
2024-02-02T22:46:32.157Z,41.17
2024-02-02T22:48:59.052Z,38.60
2024-02-02T22:51:25.899Z,42.05
2024-02-02T22:53:52.677Z,41.15
2024-02-02T22:56:19.305Z,40.03
2024-02-02T22:58:46.030Z,40.83
2024-02-02T23:01:13.136Z,39.86
2024-02-02T23:03:39.937Z,41.49
2024-02-02T23:06:07.286Z,42.60
2024-02-02T23:08:34.007Z,45.08
2024-02-02T23:11:00.664Z,43.89
2024-02-02T23:13:27.332Z,45.10
2024-02-02T23:15:55.051Z,46.48
2024-02-02T23:18:22.969Z,49.23
2024-02-02T23:20:49.834Z,50.30
2024-02-02T23:23:20.168Z,51.86
2024-02-02T23:25:46.970Z,54.34
2024-02-02T23:28:13.917Z,55.49
2024-02-02T23:30:41.200Z,57.00
2024-02-02T23:33:08.089Z,58.14
2024-02-02T23:35:34.841Z,57.36
2024-02-02T23:38:01.665Z,56.82
2024-02-02T23:40:28.862Z,56.28
2024-02-02T23:42:55.575Z,55.54
2024-02-02T23:45:22.784Z,55.09
2024-02-02T23:47:49.527Z,54.93
2024-02-02T23:50:16.415Z,53.74
2024-02-02T23:52:43.116Z,52.76
2024-02-02T23:55:10.696Z,53.00
2024-02-02T23:57:38.141Z,54.09
